sensor_id;sensor_type;location;lat;lon;timestamp;P1;durP1;ratioP1;P2;durP2;ratioP2
66707;SDS011;53622;0.000;0.000;2023-11-19T00:00:32;2.83;;;2.00;;
66707;SDS011;53622;0.000;0.000;2023-11-19T00:03:02;2.88;;;2.00;;
66707;SDS011;53622;0.000;0.000;2023-11-19T00:05:32;2.78;;;1.67;;
66707;SDS011;53622;0.000;0.000;2023-11-19T00:08:01;2.65;;;1.90;;
66707;SDS011;53622;0.000;0.000;2023-11-19T00:10:29;2.13;;;1.67;;
66707;SDS011;53622;0.000;0.000;2023-11-19T00:12:58;2.03;;;1.75;;
66707;SDS011;53622;0.000;0.000;2023-11-19T00:15:27;1.77;;;1.67;;
66707;SDS011;53622;0.000;0.000;2023-11-19T00:17:56;3.88;;;2.45;;
66707;SDS011;53622;0.000;0.000;2023-11-19T00:20:29;2.35;;;2.10;;
66707;SDS011;53622;0.000;0.000;2023-11-19T00:22:58;3.30;;;2.58;;
66707;SDS011;53622;0.000;0.000;2023-11-19T00:25:28;2.47;;;1.70;;
66707;SDS011;53622;0.000;0.000;2023-11-19T00:27:57;2.80;;;2.30;;
66707;SDS011;53622;0.000;0.000;2023-11-19T00:30:26;3.80;;;2.03;;
66707;SDS011;53622;0.000;0.000;2023-11-19T00:32:55;3.13;;;1.83;;
66707;SDS011;53622;0.000;0.000;2023-11-19T00:35:23;2.40;;;2.20;;
66707;SDS011;53622;0.000;0.000;2023-11-19T00:37:53;2.90;;;2.03;;
66707;SDS011;53622;0.000;0.000;2023-11-19T00:40:22;3.05;;;1.92;;
66707;SDS011;53622;0.000;0.000;2023-11-19T00:42:51;2.53;;;2.08;;
66707;SDS011;53622;0.000;0.000;2023-11-19T00:45:19;2.47;;;1.90;;
66707;SDS011;53622;0.000;0.000;2023-11-19T00:47:48;2.70;;;1.90;;
66707;SDS011;53622;0.000;0.000;2023-11-19T00:50:17;2.15;;;1.73;;
66707;SDS011;53622;0.000;0.000;2023-11-19T00:52:46;2.13;;;1.90;;
66707;SDS011;53622;0.000;0.000;2023-11-19T00:55:16;1.90;;;1.70;;
66707;SDS011;53622;0.000;0.000;2023-11-19T00:57:45;2.83;;;2.13;;
66707;SDS011;53622;0.000;0.000;2023-11-19T01:00:14;2.55;;;1.90;;
66707;SDS011;53622;0.000;0.000;2023-11-19T01:02:47;2.30;;;1.77;;
66707;SDS011;53622;0.000;0.000;2023-11-19T01:05:19;2.72;;;1.98;;
66707;SDS011;53622;0.000;0.000;2023-11-19T01:07:50;2.85;;;1.70;;
66707;SDS011;53622;0.000;0.000;2023-11-19T01:10:23;2.20;;;1.65;;
66707;SDS011;53622;0.000;0.000;2023-11-19T01:12:53;2.63;;;1.98;;
66707;SDS011;53622;0.000;0.000;2023-11-19T01:15:21;2.63;;;1.90;;
66707;SDS011;53622;0.000;0.000;2023-11-19T01:17:50;2.60;;;2.20;;
66707;SDS011;53622;0.000;0.000;2023-11-19T01:20:20;2.15;;;1.92;;
66707;SDS011;53622;0.000;0.000;2023-11-19T01:22:49;2.45;;;2.22;;
66707;SDS011;53622;0.000;0.000;2023-11-19T01:25:18;2.22;;;1.90;;
66707;SDS011;53622;0.000;0.000;2023-11-19T01:27:48;2.17;;;1.95;;
66707;SDS011;53622;0.000;0.000;2023-11-19T01:30:17;2.20;;;2.00;;
66707;SDS011;53622;0.000;0.000;2023-11-19T01:32:49;2.38;;;2.00;;
66707;SDS011;53622;0.000;0.000;2023-11-19T01:35:17;1.98;;;1.77;;
66707;SDS011;53622;0.000;0.000;2023-11-19T01:37:46;2.78;;;1.90;;
66707;SDS011;53622;0.000;0.000;2023-11-19T01:40:15;2.30;;;2.03;;
66707;SDS011;53622;0.000;0.000;2023-11-19T01:42:49;3.47;;;2.20;;
66707;SDS011;53622;0.000;0.000;2023-11-19T01:45:21;2.92;;;2.08;;
66707;SDS011;53622;0.000;0.000;2023-11-19T01:47:57;2.47;;;1.95;;
66707;SDS011;53622;0.000;0.000;2023-11-19T01:50:28;2.40;;;2.00;;
66707;SDS011;53622;0.000;0.000;2023-11-19T01:52:58;2.08;;;1.88;;
66707;SDS011;53622;0.000;0.000;2023-11-19T01:55:26;2.63;;;1.85;;
66707;SDS011;53622;0.000;0.000;2023-11-19T01:57:59;2.17;;;1.92;;
66707;SDS011;53622;0.000;0.000;2023-11-19T02:00:29;2.00;;;1.70;;
66707;SDS011;53622;0.000;0.000;2023-11-19T02:03:00;2.35;;;1.88;;
66707;SDS011;53622;0.000;0.000;2023-11-19T02:05:30;2.10;;;1.83;;
66707;SDS011;53622;0.000;0.000;2023-11-19T02:08:00;2.70;;;1.88;;
66707;SDS011;53622;0.000;0.000;2023-11-19T02:10:30;2.72;;;2.00;;
66707;SDS011;53622;0.000;0.000;2023-11-19T02:13:01;2.05;;;1.83;;
66707;SDS011;53622;0.000;0.000;2023-11-19T02:15:33;2.53;;;2.03;;
66707;SDS011;53622;0.000;0.000;2023-11-19T02:18:17;3.05;;;1.80;;
66707;SDS011;53622;0.000;0.000;2023-11-19T02:20:49;2.13;;;1.92;;
66707;SDS011;53622;0.000;0.000;2023-11-19T02:23:18;2.50;;;1.85;;
66707;SDS011;53622;0.000;0.000;2023-11-19T02:25:51;2.50;;;2.13;;
66707;SDS011;53622;0.000;0.000;2023-11-19T02:28:29;3.05;;;2.10;;
66707;SDS011;53622;0.000;0.000;2023-11-19T02:30:59;2.08;;;1.88;;
66707;SDS011;53622;0.000;0.000;2023-11-19T02:33:28;1.77;;;1.67;;
66707;SDS011;53622;0.000;0.000;2023-11-19T02:35:57;2.47;;;2.00;;
66707;SDS011;53622;0.000;0.000;2023-11-19T02:38:26;2.85;;;1.88;;
66707;SDS011;53622;0.000;0.000;2023-11-19T02:40:54;1.90;;;1.73;;
66707;SDS011;53622;0.000;0.000;2023-11-19T02:43:23;1.85;;;1.75;;
66707;SDS011;53622;0.000;0.000;2023-11-19T02:45:53;2.10;;;1.90;;
66707;SDS011;53622;0.000;0.000;2023-11-19T02:48:22;2.03;;;1.70;;
66707;SDS011;53622;0.000;0.000;2023-11-19T02:50:51;2.17;;;1.98;;
66707;SDS011;53622;0.000;0.000;2023-11-19T02:53:20;2.00;;;1.83;;
66707;SDS011;53622;0.000;0.000;2023-11-19T02:55:50;2.08;;;1.80;;
66707;SDS011;53622;0.000;0.000;2023-11-19T02:58:18;1.98;;;1.77;;
66707;SDS011;53622;0.000;0.000;2023-11-19T03:00:53;1.98;;;1.77;;
66707;SDS011;53622;0.000;0.000;2023-11-19T03:03:24;2.35;;;2.00;;
66707;SDS011;53622;0.000;0.000;2023-11-19T03:05:58;2.08;;;1.60;;
66707;SDS011;53622;0.000;0.000;2023-11-19T03:08:27;2.22;;;2.03;;
66707;SDS011;53622;0.000;0.000;2023-11-19T03:10:56;2.00;;;1.80;;
66707;SDS011;53622;0.000;0.000;2023-11-19T03:13:26;2.10;;;1.90;;
66707;SDS011;53622;0.000;0.000;2023-11-19T03:15:56;2.75;;;1.75;;
66707;SDS011;53622;0.000;0.000;2023-11-19T03:18:24;2.05;;;1.85;;
66707;SDS011;53622;0.000;0.000;2023-11-19T03:20:53;1.70;;;1.60;;
66707;SDS011;53622;0.000;0.000;2023-11-19T03:23:22;2.40;;;2.00;;
66707;SDS011;53622;0.000;0.000;2023-11-19T03:25:51;2.30;;;1.85;;
66707;SDS011;53622;0.000;0.000;2023-11-19T03:28:21;2.10;;;1.90;;
66707;SDS011;53622;0.000;0.000;2023-11-19T03:30:50;2.50;;;1.95;;
66707;SDS011;53622;0.000;0.000;2023-11-19T03:33:21;2.08;;;1.88;;
66707;SDS011;53622;0.000;0.000;2023-11-19T03:35:50;1.95;;;1.83;;
66707;SDS011;53622;0.000;0.000;2023-11-19T03:38:18;2.13;;;1.90;;
66707;SDS011;53622;0.000;0.000;2023-11-19T03:40:47;2.10;;;1.80;;
66707;SDS011;53622;0.000;0.000;2023-11-19T03:43:16;1.70;;;1.60;;
66707;SDS011;53622;0.000;0.000;2023-11-19T03:45:46;1.70;;;1.60;;
66707;SDS011;53622;0.000;0.000;2023-11-19T03:48:15;2.03;;;1.65;;
66707;SDS011;53622;0.000;0.000;2023-11-19T03:50:45;1.70;;;1.60;;
66707;SDS011;53622;0.000;0.000;2023-11-19T03:53:14;2.13;;;1.73;;
66707;SDS011;53622;0.000;0.000;2023-11-19T03:55:42;2.20;;;1.70;;
66707;SDS011;53622;0.000;0.000;2023-11-19T03:58:11;1.95;;;1.73;;
66707;SDS011;53622;0.000;0.000;2023-11-19T04:00:40;2.28;;;2.08;;
66707;SDS011;53622;0.000;0.000;2023-11-19T04:03:09;1.98;;;1.77;;
66707;SDS011;53622;0.000;0.000;2023-11-19T04:05:38;2.60;;;1.70;;
66707;SDS011;53622;0.000;0.000;2023-11-19T04:08:08;2.60;;;1.80;;
66707;SDS011;53622;0.000;0.000;2023-11-19T04:10:36;2.15;;;1.95;;
66707;SDS011;53622;0.000;0.000;2023-11-19T04:13:05;1.90;;;1.60;;
66707;SDS011;53622;0.000;0.000;2023-11-19T04:15:34;1.90;;;1.77;;
66707;SDS011;53622;0.000;0.000;2023-11-19T04:18:03;2.53;;;1.92;;
66707;SDS011;53622;0.000;0.000;2023-11-19T04:20:31;1.92;;;1.83;;
66707;SDS011;53622;0.000;0.000;2023-11-19T04:23:00;2.13;;;1.80;;
66707;SDS011;53622;0.000;0.000;2023-11-19T04:25:30;1.73;;;1.63;;
66707;SDS011;53622;0.000;0.000;2023-11-19T04:27:59;1.88;;;1.60;;
66707;SDS011;53622;0.000;0.000;2023-11-19T04:30:27;2.15;;;1.75;;
66707;SDS011;53622;0.000;0.000;2023-11-19T04:32:58;1.42;;;1.33;;
66707;SDS011;53622;0.000;0.000;2023-11-19T04:35:27;1.90;;;1.70;;
66707;SDS011;53622;0.000;0.000;2023-11-19T04:37:55;1.77;;;1.67;;
66707;SDS011;53622;0.000;0.000;2023-11-19T04:40:25;2.25;;;2.05;;
66707;SDS011;53622;0.000;0.000;2023-11-19T04:42:55;3.70;;;2.03;;
66707;SDS011;53622;0.000;0.000;2023-11-19T04:45:24;1.88;;;1.67;;
66707;SDS011;53622;0.000;0.000;2023-11-19T04:47:52;1.83;;;1.63;;
66707;SDS011;53622;0.000;0.000;2023-11-19T04:50:21;2.20;;;2.00;;
66707;SDS011;53622;0.000;0.000;2023-11-19T04:52:50;2.70;;;2.05;;
66707;SDS011;53622;0.000;0.000;2023-11-19T04:55:18;1.90;;;1.80;;
66707;SDS011;53622;0.000;0.000;2023-11-19T04:57:47;2.67;;;1.98;;
66707;SDS011;53622;0.000;0.000;2023-11-19T05:00:17;2.63;;;1.77;;
66707;SDS011;53622;0.000;0.000;2023-11-19T05:02:50;2.10;;;1.90;;
66707;SDS011;53622;0.000;0.000;2023-11-19T05:05:18;2.42;;;2.22;;
66707;SDS011;53622;0.000;0.000;2023-11-19T05:07:47;1.98;;;1.88;;
66707;SDS011;53622;0.000;0.000;2023-11-19T05:10:16;2.17;;;1.98;;
66707;SDS011;53622;0.000;0.000;2023-11-19T05:12:45;2.15;;;1.90;;
66707;SDS011;53622;0.000;0.000;2023-11-19T05:15:13;1.73;;;1.63;;
66707;SDS011;53622;0.000;0.000;2023-11-19T05:17:43;2.08;;;1.80;;
66707;SDS011;53622;0.000;0.000;2023-11-19T05:20:12;2.53;;;2.00;;
66707;SDS011;53622;0.000;0.000;2023-11-19T05:22:42;2.13;;;1.90;;
66707;SDS011;53622;0.000;0.000;2023-11-19T05:25:12;2.35;;;2.13;;
66707;SDS011;53622;0.000;0.000;2023-11-19T05:27:41;2.00;;;1.60;;
66707;SDS011;53622;0.000;0.000;2023-11-19T05:30:10;2.13;;;1.90;;
66707;SDS011;53622;0.000;0.000;2023-11-19T05:32:39;2.38;;;2.13;;
66707;SDS011;53622;0.000;0.000;2023-11-19T05:35:09;2.08;;;1.65;;
66707;SDS011;53622;0.000;0.000;2023-11-19T05:37:39;1.88;;;1.73;;
66707;SDS011;53622;0.000;0.000;2023-11-19T05:40:08;2.20;;;2.00;;
66707;SDS011;53622;0.000;0.000;2023-11-19T05:42:42;1.77;;;1.55;;
66707;SDS011;53622;0.000;0.000;2023-11-19T05:45:11;2.00;;;1.50;;
66707;SDS011;53622;0.000;0.000;2023-11-19T05:47:40;1.95;;;1.80;;
66707;SDS011;53622;0.000;0.000;2023-11-19T05:50:11;2.80;;;1.92;;
66707;SDS011;53622;0.000;0.000;2023-11-19T05:52:41;1.75;;;1.50;;
66707;SDS011;53622;0.000;0.000;2023-11-19T05:55:10;3.05;;;1.88;;
66707;SDS011;53622;0.000;0.000;2023-11-19T05:57:39;1.75;;;1.60;;
66707;SDS011;53622;0.000;0.000;2023-11-19T06:00:11;2.17;;;1.80;;
66707;SDS011;53622;0.000;0.000;2023-11-19T06:02:42;1.60;;;1.50;;
66707;SDS011;53622;0.000;0.000;2023-11-19T06:05:13;2.78;;;2.45;;
66707;SDS011;53622;0.000;0.000;2023-11-19T06:07:41;1.73;;;1.60;;
66707;SDS011;53622;0.000;0.000;2023-11-19T06:10:10;1.65;;;1.55;;
66707;SDS011;53622;0.000;0.000;2023-11-19T06:12:41;2.10;;;1.90;;
66707;SDS011;53622;0.000;0.000;2023-11-19T06:15:10;2.13;;;1.92;;
66707;SDS011;53622;0.000;0.000;2023-11-19T06:17:39;1.88;;;1.67;;
66707;SDS011;53622;0.000;0.000;2023-11-19T06:20:08;2.17;;;1.98;;
66707;SDS011;53622;0.000;0.000;2023-11-19T06:22:40;2.20;;;1.92;;
66707;SDS011;53622;0.000;0.000;2023-11-19T06:25:11;3.05;;;2.10;;
66707;SDS011;53622;0.000;0.000;2023-11-19T06:27:41;2.55;;;1.80;;
66707;SDS011;53622;0.000;0.000;2023-11-19T06:30:10;1.85;;;1.50;;
66707;SDS011;53622;0.000;0.000;2023-11-19T06:32:40;1.92;;;1.73;;
66707;SDS011;53622;0.000;0.000;2023-11-19T06:35:08;2.67;;;1.80;;
66707;SDS011;53622;0.000;0.000;2023-11-19T06:37:38;4.43;;;1.88;;
66707;SDS011;53622;0.000;0.000;2023-11-19T06:40:09;2.45;;;1.92;;
66707;SDS011;53622;0.000;0.000;2023-11-19T06:42:39;3.47;;;2.10;;
66707;SDS011;53622;0.000;0.000;2023-11-19T06:45:08;2.25;;;2.00;;
66707;SDS011;53622;0.000;0.000;2023-11-19T06:47:37;2.10;;;1.90;;
66707;SDS011;53622;0.000;0.000;2023-11-19T06:50:06;2.85;;;2.13;;
66707;SDS011;53622;0.000;0.000;2023-11-19T06:52:36;2.70;;;2.15;;
66707;SDS011;53622;0.000;0.000;2023-11-19T06:55:05;4.53;;;2.13;;
66707;SDS011;53622;0.000;0.000;2023-11-19T06:57:36;3.92;;;2.22;;
66707;SDS011;53622;0.000;0.000;2023-11-19T07:00:06;4.45;;;2.50;;
66707;SDS011;53622;0.000;0.000;2023-11-19T07:02:35;2.78;;;2.28;;
66707;SDS011;53622;0.000;0.000;2023-11-19T07:05:04;2.80;;;2.33;;
66707;SDS011;53622;0.000;0.000;2023-11-19T07:07:35;2.65;;;2.20;;
66707;SDS011;53622;0.000;0.000;2023-11-19T07:10:04;3.63;;;2.13;;
66707;SDS011;53622;0.000;0.000;2023-11-19T07:12:37;3.22;;;1.98;;
66707;SDS011;53622;0.000;0.000;2023-11-19T07:15:06;2.13;;;1.88;;
66707;SDS011;53622;0.000;0.000;2023-11-19T07:17:36;3.15;;;1.40;;
66707;SDS011;53622;0.000;0.000;2023-11-19T07:20:07;2.38;;;1.60;;
66707;SDS011;53622;0.000;0.000;2023-11-19T07:22:42;3.03;;;1.70;;
66707;SDS011;53622;0.000;0.000;2023-11-19T07:25:12;3.65;;;1.65;;
66707;SDS011;53622;0.000;0.000;2023-11-19T07:27:42;2.13;;;1.75;;
66707;SDS011;53622;0.000;0.000;2023-11-19T07:30:11;2.72;;;1.80;;
66707;SDS011;53622;0.000;0.000;2023-11-19T07:32:40;2.17;;;1.60;;
66707;SDS011;53622;0.000;0.000;2023-11-19T07:35:09;4.07;;;2.03;;
66707;SDS011;53622;0.000;0.000;2023-11-19T07:37:38;2.05;;;1.73;;
66707;SDS011;53622;0.000;0.000;2023-11-19T07:40:08;1.35;;;1.25;;
66707;SDS011;53622;0.000;0.000;2023-11-19T07:42:38;2.20;;;1.55;;
66707;SDS011;53622;0.000;0.000;2023-11-19T07:45:09;1.70;;;1.60;;
66707;SDS011;53622;0.000;0.000;2023-11-19T07:47:38;3.88;;;1.80;;
66707;SDS011;53622;0.000;0.000;2023-11-19T07:50:07;4.13;;;1.60;;
66707;SDS011;53622;0.000;0.000;2023-11-19T07:52:36;2.38;;;1.63;;
66707;SDS011;53622;0.000;0.000;2023-11-19T07:55:05;1.85;;;1.58;;
66707;SDS011;53622;0.000;0.000;2023-11-19T07:57:34;2.08;;;1.67;;
66707;SDS011;53622;0.000;0.000;2023-11-19T08:00:03;1.60;;;1.50;;
66707;SDS011;53622;0.000;0.000;2023-11-19T08:02:39;1.50;;;1.40;;
66707;SDS011;53622;0.000;0.000;2023-11-19T08:05:08;3.75;;;1.65;;
66707;SDS011;53622;0.000;0.000;2023-11-19T08:07:37;1.90;;;1.63;;
66707;SDS011;53622;0.000;0.000;2023-11-19T08:10:06;3.03;;;1.92;;
66707;SDS011;53622;0.000;0.000;2023-11-19T08:12:37;3.28;;;1.80;;
66707;SDS011;53622;0.000;0.000;2023-11-19T08:15:06;2.33;;;1.95;;
66707;SDS011;53622;0.000;0.000;2023-11-19T08:17:36;1.63;;;1.52;;
66707;SDS011;53622;0.000;0.000;2023-11-19T08:20:07;1.95;;;1.80;;
66707;SDS011;53622;0.000;0.000;2023-11-19T08:22:37;1.85;;;1.63;;
66707;SDS011;53622;0.000;0.000;2023-11-19T08:25:07;1.98;;;1.80;;
66707;SDS011;53622;0.000;0.000;2023-11-19T08:27:36;2.20;;;1.75;;
66707;SDS011;53622;0.000;0.000;2023-11-19T08:30:05;2.35;;;1.58;;
66707;SDS011;53622;0.000;0.000;2023-11-19T08:32:34;1.92;;;1.73;;
66707;SDS011;53622;0.000;0.000;2023-11-19T08:35:04;2.88;;;1.65;;
66707;SDS011;53622;0.000;0.000;2023-11-19T08:37:34;1.77;;;1.52;;
66707;SDS011;53622;0.000;0.000;2023-11-19T08:40:04;1.60;;;1.30;;
66707;SDS011;53622;0.000;0.000;2023-11-19T08:42:34;2.50;;;1.70;;
66707;SDS011;53622;0.000;0.000;2023-11-19T08:45:03;2.20;;;1.50;;
66707;SDS011;53622;0.000;0.000;2023-11-19T08:47:33;1.77;;;1.63;;
66707;SDS011;53622;0.000;0.000;2023-11-19T08:50:01;2.10;;;1.90;;
66707;SDS011;53622;0.000;0.000;2023-11-19T08:52:31;2.80;;;1.88;;
66707;SDS011;53622;0.000;0.000;2023-11-19T08:55:03;3.28;;;1.50;;
66707;SDS011;53622;0.000;0.000;2023-11-19T08:57:33;3.28;;;2.00;;
66707;SDS011;53622;0.000;0.000;2023-11-19T09:00:01;2.00;;;1.58;;
66707;SDS011;53622;0.000;0.000;2023-11-19T09:02:34;2.03;;;1.70;;
66707;SDS011;53622;0.000;0.000;2023-11-19T09:05:04;3.08;;;1.75;;
66707;SDS011;53622;0.000;0.000;2023-11-19T09:07:34;1.90;;;1.70;;
66707;SDS011;53622;0.000;0.000;2023-11-19T09:10:05;2.15;;;1.70;;
66707;SDS011;53622;0.000;0.000;2023-11-19T09:12:35;5.15;;;2.20;;
66707;SDS011;53622;0.000;0.000;2023-11-19T09:15:04;6.72;;;2.05;;
66707;SDS011;53622;0.000;0.000;2023-11-19T09:17:34;5.45;;;2.40;;
66707;SDS011;53622;0.000;0.000;2023-11-19T09:20:03;5.35;;;1.90;;
66707;SDS011;53622;0.000;0.000;2023-11-19T09:22:32;2.47;;;1.80;;
66707;SDS011;53622;0.000;0.000;2023-11-19T09:25:01;3.15;;;1.88;;
66707;SDS011;53622;0.000;0.000;2023-11-19T09:27:31;6.25;;;1.98;;
66707;SDS011;53622;0.000;0.000;2023-11-19T09:30:00;2.70;;;1.75;;
66707;SDS011;53622;0.000;0.000;2023-11-19T09:32:29;6.32;;;1.90;;
66707;SDS011;53622;0.000;0.000;2023-11-19T09:34:58;3.35;;;1.60;;
66707;SDS011;53622;0.000;0.000;2023-11-19T09:37:28;2.30;;;1.10;;
66707;SDS011;53622;0.000;0.000;2023-11-19T09:39:56;3.10;;;1.60;;
66707;SDS011;53622;0.000;0.000;2023-11-19T09:42:25;2.70;;;1.73;;
66707;SDS011;53622;0.000;0.000;2023-11-19T09:44:56;2.80;;;1.80;;
66707;SDS011;53622;0.000;0.000;2023-11-19T09:47:25;4.35;;;1.70;;
66707;SDS011;53622;0.000;0.000;2023-11-19T09:49:56;5.18;;;1.83;;
66707;SDS011;53622;0.000;0.000;2023-11-19T09:52:25;11.63;;;2.22;;
66707;SDS011;53622;0.000;0.000;2023-11-19T09:54:54;6.50;;;2.00;;
66707;SDS011;53622;0.000;0.000;2023-11-19T09:57:22;5.80;;;2.42;;
66707;SDS011;53622;0.000;0.000;2023-11-19T09:59:51;3.60;;;1.67;;
66707;SDS011;53622;0.000;0.000;2023-11-19T10:02:22;6.72;;;1.80;;
66707;SDS011;53622;0.000;0.000;2023-11-19T10:04:52;3.20;;;1.70;;
66707;SDS011;53622;0.000;0.000;2023-11-19T10:07:22;4.97;;;1.70;;
66707;SDS011;53622;0.000;0.000;2023-11-19T10:09:53;6.18;;;1.70;;
66707;SDS011;53622;0.000;0.000;2023-11-19T10:12:21;6.22;;;2.20;;
66707;SDS011;53622;0.000;0.000;2023-11-19T10:14:50;6.13;;;1.90;;
66707;SDS011;53622;0.000;0.000;2023-11-19T10:17:19;3.72;;;1.70;;
66707;SDS011;53622;0.000;0.000;2023-11-19T10:19:49;3.65;;;1.88;;
66707;SDS011;53622;0.000;0.000;2023-11-19T10:22:18;3.15;;;1.67;;
66707;SDS011;53622;0.000;0.000;2023-11-19T10:24:46;4.55;;;1.60;;
66707;SDS011;53622;0.000;0.000;2023-11-19T10:27:23;4.40;;;1.70;;
66707;SDS011;53622;0.000;0.000;2023-11-19T10:29:53;4.53;;;2.40;;
66707;SDS011;53622;0.000;0.000;2023-11-19T10:32:22;10.98;;;2.20;;
66707;SDS011;53622;0.000;0.000;2023-11-19T10:35:05;5.43;;;1.67;;
66707;SDS011;53622;0.000;0.000;2023-11-19T10:37:34;6.65;;;2.00;;
66707;SDS011;53622;0.000;0.000;2023-11-19T10:40:05;3.28;;;1.77;;
66707;SDS011;53622;0.000;0.000;2023-11-19T10:42:37;5.47;;;1.90;;
66707;SDS011;53622;0.000;0.000;2023-11-19T10:45:11;3.83;;;1.98;;
66707;SDS011;53622;0.000;0.000;2023-11-19T10:47:51;3.97;;;1.80;;
66707;SDS011;53622;0.000;0.000;2023-11-19T10:50:21;6.18;;;1.98;;
66707;SDS011;53622;0.000;0.000;2023-11-19T10:52:51;2.85;;;1.83;;
66707;SDS011;53622;0.000;0.000;2023-11-19T10:55:26;4.45;;;1.83;;
66707;SDS011;53622;0.000;0.000;2023-11-19T10:57:58;1.88;;;1.65;;
66707;SDS011;53622;0.000;0.000;2023-11-19T11:00:29;4.50;;;1.77;;
66707;SDS011;53622;0.000;0.000;2023-11-19T11:03:02;2.08;;;1.50;;
66707;SDS011;53622;0.000;0.000;2023-11-19T11:05:40;6.45;;;2.28;;
66707;SDS011;53622;0.000;0.000;2023-11-19T11:08:09;2.63;;;1.90;;
66707;SDS011;53622;0.000;0.000;2023-11-19T11:10:39;3.03;;;1.90;;
66707;SDS011;53622;0.000;0.000;2023-11-19T11:13:13;2.67;;;1.98;;
66707;SDS011;53622;0.000;0.000;2023-11-19T11:15:42;2.22;;;1.70;;
66707;SDS011;53622;0.000;0.000;2023-11-19T11:18:13;3.33;;;2.10;;
66707;SDS011;53622;0.000;0.000;2023-11-19T11:20:45;4.80;;;1.90;;
66707;SDS011;53622;0.000;0.000;2023-11-19T11:23:19;7.13;;;2.28;;
66707;SDS011;53622;0.000;0.000;2023-11-19T11:26:26;3.40;;;2.42;;
66707;SDS011;53622;0.000;0.000;2023-11-19T11:29:10;6.75;;;2.78;;
66707;SDS011;53622;0.000;0.000;2023-11-19T11:31:47;4.40;;;2.42;;
66707;SDS011;53622;0.000;0.000;2023-11-19T11:34:29;3.90;;;2.33;;
66707;SDS011;53622;0.000;0.000;2023-11-19T11:37:16;4.55;;;2.70;;
66707;SDS011;53622;0.000;0.000;2023-11-19T11:39:47;6.30;;;3.20;;
66707;SDS011;53622;0.000;0.000;2023-11-19T11:42:32;4.88;;;2.75;;
66707;SDS011;53622;0.000;0.000;2023-11-19T11:45:02;6.25;;;3.30;;
66707;SDS011;53622;0.000;0.000;2023-11-19T11:50:54;6.07;;;2.92;;
66707;SDS011;53622;0.000;0.000;2023-11-19T11:53:27;3.95;;;2.65;;
66707;SDS011;53622;0.000;0.000;2023-11-19T11:55:58;6.57;;;2.70;;
66707;SDS011;53622;0.000;0.000;2023-11-19T11:58:30;4.28;;;2.78;;
66707;SDS011;53622;0.000;0.000;2023-11-19T12:01:02;6.32;;;2.97;;
66707;SDS011;53622;0.000;0.000;2023-11-19T12:03:33;5.53;;;3.17;;
66707;SDS011;53622;0.000;0.000;2023-11-19T12:06:02;4.63;;;3.13;;
66707;SDS011;53622;0.000;0.000;2023-11-19T12:08:33;4.43;;;2.90;;
66707;SDS011;53622;0.000;0.000;2023-11-19T12:11:19;6.85;;;3.30;;
66707;SDS011;53622;0.000;0.000;2023-11-19T12:13:55;3.58;;;2.90;;
66707;SDS011;53622;0.000;0.000;2023-11-19T12:16:26;3.67;;;2.83;;
66707;SDS011;53622;0.000;0.000;2023-11-19T12:18:56;4.72;;;2.75;;
66707;SDS011;53622;0.000;0.000;2023-11-19T12:21:32;5.45;;;3.08;;
66707;SDS011;53622;0.000;0.000;2023-11-19T12:24:05;3.90;;;2.70;;
66707;SDS011;53622;0.000;0.000;2023-11-19T12:26:38;3.80;;;2.85;;
66707;SDS011;53622;0.000;0.000;2023-11-19T12:29:08;4.88;;;3.03;;
66707;SDS011;53622;0.000;0.000;2023-11-19T12:31:36;4.07;;;3.20;;
66707;SDS011;53622;0.000;0.000;2023-11-19T12:34:06;3.22;;;2.78;;
66707;SDS011;53622;0.000;0.000;2023-11-19T12:36:40;3.40;;;2.47;;
66707;SDS011;53622;0.000;0.000;2023-11-19T12:39:11;5.22;;;3.00;;
66707;SDS011;53622;0.000;0.000;2023-11-19T12:41:53;4.75;;;2.85;;
66707;SDS011;53622;0.000;0.000;2023-11-19T12:44:22;5.10;;;2.83;;
66707;SDS011;53622;0.000;0.000;2023-11-19T12:47:00;5.00;;;2.50;;
66707;SDS011;53622;0.000;0.000;2023-11-19T12:49:30;3.22;;;2.28;;
66707;SDS011;53622;0.000;0.000;2023-11-19T12:51:59;4.35;;;2.53;;
66707;SDS011;53622;0.000;0.000;2023-11-19T12:54:33;3.20;;;2.55;;
66707;SDS011;53622;0.000;0.000;2023-11-19T12:57:02;4.53;;;2.13;;
66707;SDS011;53622;0.000;0.000;2023-11-19T12:59:32;3.60;;;2.47;;
66707;SDS011;53622;0.000;0.000;2023-11-19T13:02:01;3.72;;;2.42;;
66707;SDS011;53622;0.000;0.000;2023-11-19T13:04:33;3.30;;;2.28;;
66707;SDS011;53622;0.000;0.000;2023-11-19T13:07:02;3.60;;;2.40;;
66707;SDS011;53622;0.000;0.000;2023-11-19T13:09:34;5.10;;;2.40;;
66707;SDS011;53622;0.000;0.000;2023-11-19T13:12:11;2.97;;;2.20;;
66707;SDS011;53622;0.000;0.000;2023-11-19T13:14:42;5.45;;;2.42;;
66707;SDS011;53622;0.000;0.000;2023-11-19T13:17:13;4.32;;;2.75;;
66707;SDS011;53622;0.000;0.000;2023-11-19T13:19:42;3.65;;;2.65;;
66707;SDS011;53622;0.000;0.000;2023-11-19T13:22:11;3.05;;;2.15;;
66707;SDS011;53622;0.000;0.000;2023-11-19T13:24:41;3.55;;;2.35;;
66707;SDS011;53622;0.000;0.000;2023-11-19T13:27:10;4.13;;;2.63;;
66707;SDS011;53622;0.000;0.000;2023-11-19T13:29:39;3.55;;;2.10;;
66707;SDS011;53622;0.000;0.000;2023-11-19T13:32:07;2.65;;;2.35;;
66707;SDS011;53622;0.000;0.000;2023-11-19T13:34:36;2.75;;;2.13;;
66707;SDS011;53622;0.000;0.000;2023-11-19T13:37:06;3.17;;;2.47;;
66707;SDS011;53622;0.000;0.000;2023-11-19T13:39:35;4.28;;;2.22;;
66707;SDS011;53622;0.000;0.000;2023-11-19T13:42:05;3.83;;;2.40;;
66707;SDS011;53622;0.000;0.000;2023-11-19T13:44:37;4.25;;;2.15;;
66707;SDS011;53622;0.000;0.000;2023-11-19T13:47:05;4.70;;;2.13;;
66707;SDS011;53622;0.000;0.000;2023-11-19T13:49:35;2.95;;;2.25;;
66707;SDS011;53622;0.000;0.000;2023-11-19T13:52:04;3.20;;;2.00;;
66707;SDS011;53622;0.000;0.000;2023-11-19T13:54:33;2.97;;;2.50;;
66707;SDS011;53622;0.000;0.000;2023-11-19T13:57:01;4.05;;;2.45;;
66707;SDS011;53622;0.000;0.000;2023-11-19T13:59:32;4.32;;;2.45;;
66707;SDS011;53622;0.000;0.000;2023-11-19T14:02:01;4.45;;;2.30;;
66707;SDS011;53622;0.000;0.000;2023-11-19T14:04:29;6.63;;;2.40;;
66707;SDS011;53622;0.000;0.000;2023-11-19T14:06:58;3.75;;;2.30;;
66707;SDS011;53622;0.000;0.000;2023-11-19T14:09:27;4.63;;;2.35;;
66707;SDS011;53622;0.000;0.000;2023-11-19T14:11:56;2.90;;;2.30;;
66707;SDS011;53622;0.000;0.000;2023-11-19T14:14:25;5.68;;;2.40;;
66707;SDS011;53622;0.000;0.000;2023-11-19T14:16:55;5.00;;;2.60;;
66707;SDS011;53622;0.000;0.000;2023-11-19T14:19:40;3.92;;;2.10;;
66707;SDS011;53622;0.000;0.000;2023-11-19T14:22:09;4.78;;;2.40;;
66707;SDS011;53622;0.000;0.000;2023-11-19T14:24:38;3.20;;;2.20;;
66707;SDS011;53622;0.000;0.000;2023-11-19T14:27:08;4.93;;;2.15;;
66707;SDS011;53622;0.000;0.000;2023-11-19T14:29:38;4.40;;;2.78;;
66707;SDS011;53622;0.000;0.000;2023-11-19T14:32:08;5.43;;;2.58;;
66707;SDS011;53622;0.000;0.000;2023-11-19T14:34:37;3.67;;;2.20;;
66707;SDS011;53622;0.000;0.000;2023-11-19T14:37:05;4.68;;;2.65;;
66707;SDS011;53622;0.000;0.000;2023-11-19T14:39:34;2.92;;;2.28;;
66707;SDS011;53622;0.000;0.000;2023-11-19T14:42:03;2.72;;;2.30;;
66707;SDS011;53622;0.000;0.000;2023-11-19T14:44:32;2.60;;;2.15;;
66707;SDS011;53622;0.000;0.000;2023-11-19T14:47:01;4.10;;;1.90;;
66707;SDS011;53622;0.000;0.000;2023-11-19T14:49:31;4.80;;;2.10;;
66707;SDS011;53622;0.000;0.000;2023-11-19T14:52:02;3.70;;;2.10;;
66707;SDS011;53622;0.000;0.000;2023-11-19T14:54:34;4.25;;;1.90;;
66707;SDS011;53622;0.000;0.000;2023-11-19T14:57:03;2.53;;;2.08;;
66707;SDS011;53622;0.000;0.000;2023-11-19T14:59:31;3.85;;;1.70;;
66707;SDS011;53622;0.000;0.000;2023-11-19T15:02:00;3.10;;;2.03;;
66707;SDS011;53622;0.000;0.000;2023-11-19T15:04:29;3.35;;;1.90;;
66707;SDS011;53622;0.000;0.000;2023-11-19T15:07:00;5.03;;;2.10;;
66707;SDS011;53622;0.000;0.000;2023-11-19T15:09:29;4.50;;;1.92;;
66707;SDS011;53622;0.000;0.000;2023-11-19T15:11:59;2.38;;;1.90;;
66707;SDS011;53622;0.000;0.000;2023-11-19T15:14:29;3.78;;;2.17;;
66707;SDS011;53622;0.000;0.000;2023-11-19T15:16:57;3.67;;;1.80;;
66707;SDS011;53622;0.000;0.000;2023-11-19T15:19:26;7.25;;;1.90;;
66707;SDS011;53622;0.000;0.000;2023-11-19T15:21:57;2.65;;;1.77;;